createdAt,value
2022-09-06T00:00:26.651Z,60.06
2022-09-06T00:02:54.442Z,60.27
2022-09-06T00:05:21.864Z,60.16
2022-09-06T00:07:48.720Z,60.02
2022-09-06T00:10:16.000Z,60.16
2022-09-06T00:12:43.009Z,59.94
2022-09-06T00:15:10.393Z,60.04
2022-09-06T00:17:37.384Z,60.46
2022-09-06T00:20:08.537Z,60.67
2022-09-06T00:22:36.644Z,60.52
2022-09-06T00:25:06.493Z,60.74
2022-09-06T00:27:34.478Z,61.01
2022-09-06T00:30:01.404Z,61.10
2022-09-06T00:32:28.539Z,61.14
2022-09-06T00:34:55.428Z,61.98
2022-09-06T00:37:22.253Z,61.77
2022-09-06T00:39:49.157Z,61.49
2022-09-06T00:42:16.079Z,62.40
2022-09-06T00:44:42.925Z,61.87
2022-09-06T00:47:09.830Z,63.50
2022-09-06T00:49:44.839Z,63.09
2022-09-06T00:52:15.762Z,62.29
2022-09-06T00:54:43.716Z,63.00
2022-09-06T00:57:11.782Z,61.83
2022-09-06T00:59:40.465Z,61.50
2022-09-06T01:02:09.342Z,61.01
2022-09-06T01:04:40.210Z,61.17
2022-09-06T01:07:35.510Z,61.52
2022-09-06T01:10:28.359Z,61.67
2022-09-06T01:13:36.885Z,61.93
2022-09-06T01:16:37.750Z,61.81
2022-09-06T01:19:36.063Z,61.87
2022-09-06T01:22:14.430Z,61.56
2022-09-06T01:25:03.886Z,61.32
2022-09-06T01:28:01.442Z,60.90
2022-09-06T01:30:28.926Z,59.10
2022-09-06T01:33:16.190Z,58.00
2022-09-06T01:36:04.949Z,57.87
2022-09-06T01:38:31.906Z,57.34
2022-09-06T01:40:58.759Z,57.16
2022-09-06T01:43:32.126Z,57.19
2022-09-06T01:46:25.891Z,57.39
2022-09-06T01:49:24.308Z,58.98
2022-09-06T01:52:09.561Z,61.00
2022-09-06T01:55:19.783Z,61.49
2022-09-06T01:58:15.430Z,62.68
2022-09-06T02:00:50.242Z,64.13
2022-09-06T02:03:28.788Z,64.91
2022-09-06T02:06:03.408Z,64.52
2022-09-06T02:08:41.084Z,65.22
2022-09-06T02:11:09.379Z,67.24
2022-09-06T02:13:49.839Z,66.46
2022-09-06T02:16:21.992Z,66.49
2022-09-06T02:18:56.115Z,65.54
2022-09-06T02:21:30.485Z,64.98
2022-09-06T02:24:01.114Z,65.02
2022-09-06T02:26:33.126Z,65.25
2022-09-06T02:29:00.410Z,65.33
2022-09-06T02:31:37.869Z,65.70
2022-09-06T02:34:05.810Z,65.68
2022-09-06T02:36:35.807Z,66.29
2022-09-06T02:39:02.913Z,66.28
2022-09-06T02:41:30.981Z,66.91
2022-09-06T02:43:57.922Z,66.87
2022-09-06T02:46:24.939Z,67.02
2022-09-06T02:48:52.299Z,67.13
2022-09-06T02:51:19.495Z,66.86
2022-09-06T02:53:46.762Z,67.71
2022-09-06T02:56:13.621Z,67.32
2022-09-06T02:58:40.484Z,67.77
2022-09-06T03:01:07.531Z,67.89
2022-09-06T03:03:34.621Z,67.24
2022-09-06T03:06:01.679Z,67.00
2022-09-06T03:08:33.328Z,68.09
2022-09-06T03:11:01.209Z,68.23
2022-09-06T03:13:28.735Z,68.09
2022-09-06T03:15:59.529Z,68.18
2022-09-06T03:18:29.167Z,69.03
2022-09-06T03:20:57.907Z,69.75
2022-09-06T03:23:27.818Z,69.18
2022-09-06T03:25:55.416Z,69.33
2022-09-06T03:28:23.108Z,68.75
2022-09-06T03:30:51.980Z,69.87
2022-09-06T03:33:20.414Z,70.26
2022-09-06T03:36:03.079Z,70.05
2022-09-06T03:38:30.757Z,70.01
2022-09-06T03:40:58.592Z,69.76
2022-09-06T03:43:27.323Z,70.84
2022-09-06T03:45:57.571Z,71.79
2022-09-06T03:48:28.633Z,71.39
2022-09-06T03:50:58.776Z,69.40
2022-09-06T03:53:27.943Z,70.28
2022-09-06T03:55:58.078Z,70.52
2022-09-06T03:58:30.181Z,70.83
2022-09-06T04:01:07.656Z,69.32
2022-09-06T04:03:35.624Z,69.26
2022-09-06T04:06:03.825Z,68.65
2022-09-06T04:08:31.839Z,70.04
2022-09-06T04:10:59.562Z,71.96
2022-09-06T04:13:28.678Z,72.97
2022-09-06T04:15:55.803Z,73.10
2022-09-06T04:18:23.497Z,73.87
2022-09-06T04:20:53.154Z,73.85
2022-09-06T04:23:20.680Z,74.45
2022-09-06T04:25:53.177Z,74.95
2022-09-06T04:28:21.618Z,76.21
2022-09-06T04:31:04.951Z,76.41
2022-09-06T04:33:35.304Z,76.61
2022-09-06T04:36:05.669Z,76.05
2022-09-06T04:38:39.928Z,76.96
2022-09-06T04:41:08.307Z,77.31
2022-09-06T04:43:35.517Z,77.42
2022-09-06T04:46:29.941Z,77.23
2022-09-06T04:48:58.221Z,77.34
2022-09-06T04:51:25.620Z,77.67
2022-09-06T04:53:52.883Z,77.88
2022-09-06T04:56:22.405Z,78.32
2022-09-06T04:58:51.178Z,79.06
2022-09-06T05:01:18.594Z,79.22
2022-09-06T05:03:45.491Z,78.88
2022-09-06T05:06:24.006Z,79.38
2022-09-06T05:08:51.588Z,80.36
2022-09-06T05:11:19.642Z,80.69
2022-09-06T05:13:47.532Z,80.90
2022-09-06T05:16:14.530Z,80.42
2022-09-06T05:18:42.352Z,81.14
2022-09-06T05:21:09.400Z,81.69
2022-09-06T05:23:36.617Z,81.39
2022-09-06T05:26:03.632Z,79.67
2022-09-06T05:28:30.773Z,79.02
2022-09-06T05:31:08.126Z,77.44
2022-09-06T05:33:35.039Z,74.44
2022-09-06T05:36:03.754Z,72.61
2022-09-06T05:38:30.904Z,70.73
2022-09-06T05:40:58.057Z,67.97
2022-09-06T05:43:24.951Z,64.79
2022-09-06T05:45:51.942Z,61.17
2022-09-06T05:48:19.342Z,61.63
2022-09-06T05:50:46.286Z,60.97
2022-09-06T05:53:13.112Z,62.32
2022-09-06T05:55:42.885Z,62.70
2022-09-06T05:58:10.075Z,61.94
2022-09-06T06:00:36.911Z,61.76
2022-09-06T06:03:03.740Z,60.02
2022-09-06T06:05:30.578Z,60.78
2022-09-06T06:07:58.870Z,62.83
2022-09-06T06:10:25.859Z,63.71
2022-09-06T06:12:52.689Z,63.79
2022-09-06T06:15:19.542Z,63.79
2022-09-06T06:17:46.419Z,61.48
2022-09-06T06:20:13.268Z,57.47
2022-09-06T06:22:40.157Z,53.01
2022-09-06T06:25:07.479Z,51.05
2022-09-06T06:27:35.308Z,49.86
2022-09-06T06:30:02.159Z,48.75
2022-09-06T06:32:29.050Z,50.62
2022-09-06T06:34:55.901Z,52.27
2022-09-06T06:37:22.845Z,53.59
2022-09-06T06:39:49.782Z,55.10
2022-09-06T06:42:16.754Z,57.70
2022-09-06T06:44:43.668Z,57.13
2022-09-06T06:47:10.583Z,51.44
2022-09-06T06:49:37.447Z,45.40
2022-09-06T06:52:04.328Z,41.75
2022-09-06T06:54:31.205Z,42.92
2022-09-06T06:56:58.060Z,42.63
2022-09-06T06:59:24.949Z,43.56
2022-09-06T07:01:52.400Z,45.38
2022-09-06T07:04:19.364Z,47.45
2022-09-06T07:12:30.274Z,49.00
2022-09-06T07:14:57.138Z,46.29
2022-09-06T07:17:23.982Z,46.14
2022-09-06T07:22:39.205Z,46.62
2022-09-06T07:25:07.429Z,47.71
2022-09-06T07:27:50.325Z,49.96
2022-09-06T07:30:19.756Z,50.56
2022-09-06T07:32:46.830Z,51.26
2022-09-06T07:35:13.924Z,52.91
2022-09-06T07:37:40.938Z,52.70
2022-09-06T07:40:08.932Z,53.23
2022-09-06T07:42:36.809Z,51.26
2022-09-06T07:45:05.354Z,50.12
2022-09-06T07:53:10.160Z,48.89
2022-09-06T07:55:40.927Z,49.01
2022-09-06T07:58:07.788Z,47.99
2022-09-06T08:00:34.725Z,47.90
2022-09-06T08:03:01.626Z,46.11
2022-09-06T08:11:02.665Z,48.05
2022-09-06T08:13:29.807Z,48.40
2022-09-06T08:16:08.001Z,48.57
2022-09-06T08:18:36.239Z,44.47
2022-09-06T08:21:12.835Z,37.04
2022-09-06T08:23:51.728Z,33.15
2022-09-06T08:26:23.540Z,32.95
2022-09-06T08:29:00.205Z,31.24
2022-09-06T08:31:29.599Z,27.81
2022-09-06T08:33:58.198Z,25.96
2022-09-06T08:36:29.442Z,24.72
2022-09-06T08:38:57.926Z,24.89
2022-09-06T08:41:45.005Z,23.27
2022-09-06T08:47:13.361Z,20.84
2022-09-06T08:49:46.085Z,20.28
2022-09-06T08:52:41.756Z,21.22
2022-09-06T08:55:39.575Z,20.75
2022-09-06T08:59:09.088Z,21.22
2022-09-06T09:02:10.429Z,21.90
2022-09-06T09:04:54.392Z,22.62
2022-09-06T09:07:47.956Z,22.61
2022-09-06T09:10:21.512Z,20.63
2022-09-06T09:12:49.805Z,19.16
2022-09-06T09:15:20.596Z,17.75
2022-09-06T09:17:50.495Z,16.57
2022-09-06T09:20:17.549Z,16.02
2022-09-06T09:22:45.131Z,15.65
2022-09-06T09:25:23.768Z,14.52
2022-09-06T09:27:57.797Z,14.10
2022-09-06T09:33:29.804Z,12.18
2022-09-06T09:36:01.772Z,11.87
2022-09-06T09:38:34.930Z,12.80
2022-09-06T09:41:07.668Z,12.72
2022-09-06T09:43:42.575Z,11.90
2022-09-06T09:46:24.380Z,12.91
2022-09-06T09:49:22.352Z,14.19
2022-09-06T09:52:13.211Z,13.01
2022-09-06T09:54:44.853Z,13.33
2022-09-06T09:57:17.831Z,13.67
2022-09-06T09:59:50.598Z,13.99
2022-09-06T10:02:30.880Z,14.91
2022-09-06T10:05:17.512Z,14.12
2022-09-06T10:07:55.049Z,13.91
2022-09-06T10:10:32.821Z,13.34
2022-09-06T10:13:24.277Z,13.25
2022-09-06T10:15:54.083Z,11.91
2022-09-06T10:18:20.858Z,12.89
2022-09-06T10:20:56.042Z,13.09
2022-09-06T10:27:04.367Z,17.87
2022-09-06T10:29:39.886Z,19.22
2022-09-06T10:32:39.221Z,21.83
2022-09-06T10:35:26.795Z,24.82
2022-09-06T10:38:05.482Z,27.49
2022-09-06T10:41:03.354Z,31.59
2022-09-06T10:44:08.383Z,32.41
2022-09-06T10:46:36.651Z,34.45
2022-09-06T10:49:03.570Z,35.39
2022-09-06T10:51:50.062Z,36.05
2022-09-06T10:54:24.450Z,37.38
2022-09-06T10:56:58.854Z,38.45
2022-09-06T10:59:38.777Z,39.03
2022-09-06T11:02:38.317Z,39.50
2022-09-06T11:11:14.195Z,42.09
2022-09-06T11:13:41.079Z,42.54
2022-09-06T11:16:23.039Z,42.47
2022-09-06T11:19:07.840Z,44.66
2022-09-06T11:22:10.230Z,44.22
2022-09-06T11:24:58.123Z,44.70
2022-09-06T11:27:30.836Z,44.73
2022-09-06T11:30:00.796Z,46.46
2022-09-06T11:32:48.754Z,46.54
2022-09-06T11:35:34.865Z,46.51
2022-09-06T11:38:23.735Z,46.42
2022-09-06T11:41:01.768Z,45.61
2022-09-06T11:43:52.789Z,46.34
2022-09-06T11:46:34.991Z,45.92
2022-09-06T11:49:07.758Z,46.50
2022-09-06T11:51:41.870Z,46.63
2022-09-06T11:54:25.211Z,46.13
2022-09-06T11:57:13.553Z,47.18
2022-09-06T11:59:56.235Z,47.45
2022-09-06T12:02:41.333Z,46.64
2022-09-06T12:05:20.710Z,46.14
2022-09-06T12:08:24.639Z,45.34
2022-09-06T12:11:22.761Z,47.42
2022-09-06T12:14:34.163Z,45.76
2022-09-06T12:17:00.927Z,45.85
2022-09-06T12:19:49.952Z,46.97
2022-09-06T12:22:37.642Z,45.95
2022-09-06T12:25:40.998Z,46.06
2022-09-06T12:28:27.055Z,45.46
2022-09-06T12:30:54.083Z,45.55
2022-09-06T12:33:38.766Z,44.92
2022-09-06T12:36:22.627Z,45.27
2022-09-06T12:39:12.028Z,45.56
2022-09-06T12:41:45.589Z,46.64
2022-09-06T12:44:15.283Z,46.39
2022-09-06T12:46:50.688Z,45.96
2022-09-06T12:49:23.448Z,45.09
2022-09-06T12:51:50.862Z,44.37
2022-09-06T12:54:26.525Z,44.31
2022-09-06T12:57:12.350Z,45.16
2022-09-06T12:59:57.190Z,45.91
2022-09-06T13:02:41.283Z,46.82
2022-09-06T13:05:12.351Z,46.84
2022-09-06T13:07:50.112Z,46.94
2022-09-06T13:10:19.872Z,46.25
2022-09-06T13:12:50.423Z,46.22
2022-09-06T13:15:29.015Z,46.12
2022-09-06T13:18:36.405Z,45.36
2022-09-06T13:21:15.733Z,45.35
2022-09-06T13:23:47.515Z,43.68
2022-09-06T13:26:14.997Z,42.53
2022-09-06T13:28:41.969Z,42.93
2022-09-06T13:31:18.057Z,42.64
2022-09-06T13:33:46.441Z,43.54
2022-09-06T13:36:32.014Z,44.23
2022-09-06T13:39:00.062Z,44.33
2022-09-06T13:41:26.804Z,44.22
2022-09-06T13:44:19.835Z,44.02
2022-09-06T13:46:46.980Z,44.08
2022-09-06T13:49:14.448Z,45.61
2022-09-06T13:51:43.303Z,44.57
2022-09-06T13:54:14.104Z,43.23
2022-09-06T13:56:44.526Z,42.85
2022-09-06T13:59:12.283Z,41.47
2022-09-06T14:01:42.307Z,41.27
2022-09-06T14:04:13.699Z,41.08
2022-09-06T14:06:40.637Z,40.87
2022-09-06T14:09:09.010Z,41.32
2022-09-06T14:11:37.099Z,41.23
2022-09-06T14:14:05.162Z,41.27
2022-09-06T14:16:34.074Z,38.43
2022-09-06T14:19:00.949Z,37.39
2022-09-06T14:21:27.849Z,36.81
2022-09-06T14:23:54.743Z,36.59
2022-09-06T14:26:23.043Z,36.40
2022-09-06T14:28:50.526Z,36.37
2022-09-06T14:31:25.922Z,36.55
2022-09-06T14:33:55.057Z,37.29
2022-09-06T14:36:26.227Z,37.98
2022-09-06T14:38:53.830Z,38.51
2022-09-06T14:41:21.065Z,37.79
2022-09-06T14:43:51.688Z,39.72
2022-09-06T14:46:20.098Z,39.57
2022-09-06T14:48:47.157Z,40.57
2022-09-06T14:51:23.792Z,40.83
2022-09-06T14:54:02.485Z,41.20
2022-09-06T14:56:30.284Z,41.88
2022-09-06T14:58:57.829Z,41.82
2022-09-06T15:01:31.898Z,42.02
2022-09-06T15:04:04.086Z,42.37
2022-09-06T15:06:34.774Z,42.56
2022-09-06T15:09:01.626Z,43.88
2022-09-06T15:11:39.291Z,44.18
2022-09-06T15:14:13.438Z,44.65
2022-09-06T15:16:40.342Z,45.43
2022-09-06T15:19:08.784Z,46.09
2022-09-06T15:21:35.923Z,46.17
2022-09-06T15:24:03.247Z,47.35
2022-09-06T15:26:30.867Z,47.14
2022-09-06T15:28:57.742Z,47.15
2022-09-06T15:31:25.053Z,46.55
2022-09-06T15:33:52.834Z,46.48
2022-09-06T15:36:21.793Z,45.85
2022-09-06T15:38:52.260Z,46.10
2022-09-06T15:41:26.246Z,45.87
2022-09-06T15:44:00.738Z,45.28
2022-09-06T15:46:38.320Z,45.03
2022-09-06T15:49:08.350Z,45.36
2022-09-06T15:51:37.813Z,46.32
2022-09-06T15:54:06.859Z,46.77
2022-09-06T15:56:34.935Z,46.18
2022-09-06T15:59:01.985Z,46.04
2022-09-06T16:01:29.029Z,46.40
2022-09-06T16:04:03.706Z,46.00
2022-09-06T16:06:37.544Z,46.58
2022-09-06T16:09:10.834Z,47.31
2022-09-06T16:11:37.964Z,47.55
2022-09-06T16:14:07.207Z,47.65
2022-09-06T16:16:35.789Z,48.27
2022-09-06T16:19:03.788Z,50.11
2022-09-06T16:21:34.228Z,50.33
2022-09-06T16:24:05.069Z,49.08
2022-09-06T16:26:39.241Z,49.68
2022-09-06T16:29:08.170Z,49.55
2022-09-06T16:31:40.028Z,51.99
2022-09-06T16:34:09.782Z,50.65
2022-09-06T16:36:37.146Z,50.09
2022-09-06T16:39:05.479Z,50.35
2022-09-06T16:41:42.542Z,50.46
2022-09-06T16:44:16.046Z,50.24
2022-09-06T16:46:48.538Z,50.39
2022-09-06T16:49:18.992Z,51.60
2022-09-06T16:51:47.834Z,52.89
2022-09-06T16:54:15.827Z,56.71
2022-09-06T16:56:43.414Z,57.27
2022-09-06T16:59:12.200Z,56.70
2022-09-06T17:01:41.854Z,58.75
2022-09-06T17:04:09.678Z,58.62
2022-09-06T17:06:44.018Z,58.87
2022-09-06T17:09:13.558Z,57.68
2022-09-06T17:11:40.508Z,58.09
2022-09-06T17:14:08.344Z,57.29
2022-09-06T17:16:53.818Z,55.88
2022-09-06T17:19:21.004Z,56.66
2022-09-06T17:21:47.913Z,56.87
2022-09-06T17:24:15.453Z,57.12
2022-09-06T17:26:42.486Z,57.34
2022-09-06T17:29:10.383Z,58.29
2022-09-06T17:31:38.193Z,58.46
2022-09-06T17:34:07.762Z,59.16
2022-09-06T17:36:35.574Z,59.46
2022-09-06T17:39:06.814Z,59.26
2022-09-06T17:41:43.174Z,60.89
2022-09-06T17:44:11.283Z,60.99
2022-09-06T17:46:47.755Z,60.81
2022-09-06T17:49:24.587Z,60.19
2022-09-06T17:51:52.046Z,59.88
2022-09-06T17:54:19.219Z,59.14
2022-09-06T17:56:46.231Z,58.69
2022-09-06T17:59:15.445Z,58.77
2022-09-06T18:01:44.630Z,58.61
2022-09-06T18:04:13.597Z,58.98
2022-09-06T18:06:43.208Z,59.14
2022-09-06T18:09:14.782Z,59.28
2022-09-06T18:11:45.509Z,59.93
2022-09-06T18:14:20.547Z,58.91
2022-09-06T18:16:50.425Z,55.21
2022-09-06T18:19:18.049Z,54.60
2022-09-06T18:21:47.373Z,52.78
2022-09-06T18:24:14.996Z,52.71
2022-09-06T18:26:42.997Z,49.97
2022-09-06T18:29:16.532Z,50.40
2022-09-06T18:31:44.317Z,51.06
2022-09-06T18:34:12.334Z,50.83
2022-09-06T18:36:39.932Z,50.55
2022-09-06T18:39:07.105Z,52.26
2022-09-06T18:41:52.919Z,51.81
2022-09-06T18:44:19.859Z,52.72
2022-09-06T18:46:47.475Z,52.38
2022-09-06T18:49:15.488Z,53.09
2022-09-06T18:51:43.311Z,53.27
2022-09-06T18:54:10.867Z,52.88
2022-09-06T18:56:38.419Z,53.19
2022-09-06T18:59:05.996Z,52.38
2022-09-06T19:01:34.868Z,52.53
2022-09-06T19:04:03.402Z,52.55
2022-09-06T19:06:32.604Z,53.69
2022-09-06T19:09:05.024Z,52.67
2022-09-06T19:11:31.924Z,52.73
2022-09-06T19:13:59.211Z,53.27
2022-09-06T19:16:28.556Z,53.29
2022-09-06T19:18:56.874Z,53.10
2022-09-06T19:21:25.469Z,53.04
2022-09-06T19:24:07.995Z,52.83
2022-09-06T19:26:38.573Z,51.87
2022-09-06T19:29:09.136Z,52.73
2022-09-06T19:31:37.992Z,53.15
2022-09-06T19:34:05.511Z,53.47
2022-09-06T19:36:32.873Z,53.03
2022-09-06T19:39:07.511Z,53.40
2022-09-06T19:41:39.081Z,53.18
2022-09-06T19:44:08.473Z,53.35
2022-09-06T19:46:36.439Z,53.97
2022-09-06T19:49:04.912Z,54.09
2022-09-06T19:51:33.042Z,53.79
2022-09-06T19:54:00.408Z,54.00
2022-09-06T19:56:34.229Z,54.20
2022-09-06T19:59:05.060Z,54.79
2022-09-06T20:01:33.754Z,54.43
2022-09-06T20:04:03.695Z,53.89
2022-09-06T20:06:31.678Z,54.25
2022-09-06T20:09:00.367Z,54.51
2022-09-06T20:11:30.396Z,54.43
2022-09-06T20:13:57.647Z,54.75
2022-09-06T20:16:25.568Z,54.89
2022-09-06T20:18:54.877Z,54.90
2022-09-06T20:21:21.874Z,54.79
2022-09-06T20:23:54.514Z,55.29
2022-09-06T20:26:23.774Z,55.16
2022-09-06T20:28:59.676Z,55.65
2022-09-06T20:31:28.968Z,55.58
2022-09-06T20:33:57.964Z,56.45
2022-09-06T20:36:25.208Z,56.03
2022-09-06T20:38:52.218Z,56.32
2022-09-06T20:41:23.443Z,56.61
2022-09-06T20:43:53.368Z,57.10
2022-09-06T20:46:23.695Z,57.16
2022-09-06T20:48:51.796Z,56.93
2022-09-06T20:51:21.582Z,57.07
2022-09-06T20:53:56.428Z,57.29
2022-09-06T20:56:30.037Z,57.61
2022-09-06T20:59:00.664Z,57.63
2022-09-06T21:01:34.251Z,57.96
2022-09-06T21:04:03.484Z,58.14
2022-09-06T21:06:34.372Z,58.17
2022-09-06T21:09:06.777Z,58.91
2022-09-06T21:11:34.422Z,59.05
2022-09-06T21:14:01.621Z,59.49
2022-09-06T21:16:30.362Z,59.43
2022-09-06T21:19:03.697Z,59.63
2022-09-06T21:21:32.621Z,59.94
2022-09-06T21:24:05.371Z,59.98
2022-09-06T21:26:33.173Z,60.31
2022-09-06T21:29:00.456Z,60.97
2022-09-06T21:31:31.428Z,61.15
2022-09-06T21:34:03.311Z,61.30
2022-09-06T21:36:34.755Z,61.37
2022-09-06T21:39:12.741Z,61.71
2022-09-06T21:41:42.226Z,61.78
2022-09-06T21:44:10.484Z,62.18
2022-09-06T21:46:39.360Z,62.71
2022-09-06T21:49:12.912Z,62.99
2022-09-06T21:51:40.421Z,63.00
2022-09-06T21:54:07.563Z,62.86
2022-09-06T21:56:36.678Z,63.17
2022-09-06T21:59:04.848Z,63.54
2022-09-06T22:01:35.216Z,63.97
2022-09-06T22:04:03.433Z,64.10
2022-09-06T22:06:32.796Z,64.35
2022-09-06T22:09:02.780Z,64.99
2022-09-06T22:11:33.084Z,64.99
2022-09-06T22:14:05.156Z,65.22
2022-09-06T22:16:35.237Z,65.27
2022-09-06T22:19:04.770Z,65.59
2022-09-06T22:21:32.865Z,66.09
2022-09-06T22:24:03.413Z,66.01
2022-09-06T22:26:32.624Z,66.18
2022-09-06T22:29:04.435Z,66.11
2022-09-06T22:31:33.070Z,65.86
2022-09-06T22:34:00.511Z,67.07
2022-09-06T22:36:28.392Z,67.21
2022-09-06T22:38:58.862Z,67.38
2022-09-06T22:41:28.300Z,68.29
2022-09-06T22:43:56.007Z,67.85
2022-09-06T22:46:23.488Z,69.12
2022-09-06T22:48:50.574Z,68.43
2022-09-06T22:51:17.648Z,68.44
2022-09-06T22:53:44.827Z,68.51
2022-09-06T22:56:11.823Z,68.85
2022-09-06T22:58:38.721Z,68.87
2022-09-06T23:01:11.895Z,68.51
2022-09-06T23:03:39.075Z,69.67
2022-09-06T23:06:06.257Z,70.37
2022-09-06T23:08:36.021Z,69.95
2022-09-06T23:11:12.812Z,69.84
2022-09-06T23:13:43.986Z,71.16
2022-09-06T23:16:15.184Z,71.37
2022-09-06T23:18:42.757Z,72.08
2022-09-06T23:21:21.204Z,72.22
2022-09-06T23:23:50.946Z,72.95
2022-09-06T23:26:30.726Z,73.44
2022-09-06T23:28:58.562Z,73.81
2022-09-06T23:31:31.250Z,74.20
2022-09-06T23:34:00.572Z,74.62
2022-09-06T23:36:28.382Z,74.81
2022-09-06T23:38:56.337Z,74.70
2022-09-06T23:41:24.268Z,74.55
2022-09-06T23:43:51.114Z,74.68
2022-09-06T23:46:18.314Z,74.20
2022-09-06T23:48:45.683Z,74.37
2022-09-06T23:51:13.399Z,74.37
2022-09-06T23:53:40.469Z,73.74
2022-09-06T23:56:08.191Z,73.57
2022-09-06T23:58:36.031Z,73.47
